sensor_id;sensor_type;location;lat;lon;timestamp;temperature;humidity
20670;DHT22;10494;50.868;4.180;2023-05-18T00:01:32;8.70;99.90
20670;DHT22;10494;50.868;4.180;2023-05-18T00:03:58;8.80;99.90
20670;DHT22;10494;50.868;4.180;2023-05-18T00:06:24;8.80;99.90
20670;DHT22;10494;50.868;4.180;2023-05-18T00:08:52;9.00;99.90
20670;DHT22;10494;50.868;4.180;2023-05-18T00:11:18;9.00;99.90
20670;DHT22;10494;50.868;4.180;2023-05-18T00:13:43;9.10;99.90
20670;DHT22;10494;50.868;4.180;2023-05-18T00:16:09;9.10;99.90
20670;DHT22;10494;50.868;4.180;2023-05-18T00:18:36;9.10;99.90
20670;DHT22;10494;50.868;4.180;2023-05-18T00:21:02;9.20;99.90
20670;DHT22;10494;50.868;4.180;2023-05-18T00:23:29;9.10;99.90
20670;DHT22;10494;50.868;4.180;2023-05-18T00:25:57;9.10;99.90
20670;DHT22;10494;50.868;4.180;2023-05-18T00:28:23;9.10;99.90
20670;DHT22;10494;50.868;4.180;2023-05-18T00:30:48;9.10;99.90
20670;DHT22;10494;50.868;4.180;2023-05-18T00:33:14;9.10;99.90
20670;DHT22;10494;50.868;4.180;2023-05-18T00:35:39;9.10;99.90
20670;DHT22;10494;50.868;4.180;2023-05-18T00:38:05;9.10;99.90
20670;DHT22;10494;50.868;4.180;2023-05-18T00:40:31;8.90;99.90
20670;DHT22;10494;50.868;4.180;2023-05-18T00:42:57;8.80;99.90
20670;DHT22;10494;50.868;4.180;2023-05-18T00:45:22;8.90;99.90
20670;DHT22;10494;50.868;4.180;2023-05-18T00:47:48;9.00;99.90
20670;DHT22;10494;50.868;4.180;2023-05-18T00:50:14;9.20;99.90
20670;DHT22;10494;50.868;4.180;2023-05-18T00:52:40;9.10;99.90
20670;DHT22;10494;50.868;4.180;2023-05-18T00:55:07;9.10;99.90
20670;DHT22;10494;50.868;4.180;2023-05-18T00:57:33;8.90;99.90
20670;DHT22;10494;50.868;4.180;2023-05-18T00:59:59;8.90;99.90
20670;DHT22;10494;50.868;4.180;2023-05-18T01:02:26;8.90;99.90
20670;DHT22;10494;50.868;4.180;2023-05-18T01:04:54;8.90;99.90
20670;DHT22;10494;50.868;4.180;2023-05-18T01:07:21;8.90;99.90
20670;DHT22;10494;50.868;4.180;2023-05-18T01:09:52;8.70;99.90
20670;DHT22;10494;50.868;4.180;2023-05-18T01:12:27;8.60;99.90
20670;DHT22;10494;50.868;4.180;2023-05-18T01:28:29;8.80;99.90
20670;DHT22;10494;50.868;4.180;2023-05-18T01:30:57;8.70;99.90
20670;DHT22;10494;50.868;4.180;2023-05-18T01:33:23;8.40;99.90
20670;DHT22;10494;50.868;4.180;2023-05-18T01:35:50;8.40;99.90
20670;DHT22;10494;50.868;4.180;2023-05-18T01:38:18;8.50;99.90
20670;DHT22;10494;50.868;4.180;2023-05-18T01:43:17;8.50;99.90
20670;DHT22;10494;50.868;4.180;2023-05-18T01:45:46;8.40;99.90
20670;DHT22;10494;50.868;4.180;2023-05-18T01:48:19;8.50;99.90
20670;DHT22;10494;50.868;4.180;2023-05-18T01:50:47;8.50;99.90
20670;DHT22;10494;50.868;4.180;2023-05-18T01:53:21;8.50;99.90
20670;DHT22;10494;50.868;4.180;2023-05-18T01:55:49;8.50;99.90
20670;DHT22;10494;50.868;4.180;2023-05-18T01:58:17;8.50;99.90
20670;DHT22;10494;50.868;4.180;2023-05-18T02:00:45;8.40;99.90
20670;DHT22;10494;50.868;4.180;2023-05-18T02:03:12;8.40;99.90
20670;DHT22;10494;50.868;4.180;2023-05-18T02:05:38;8.30;99.90
20670;DHT22;10494;50.868;4.180;2023-05-18T02:08:04;8.20;99.90
20670;DHT22;10494;50.868;4.180;2023-05-18T02:10:29;8.30;99.90
20670;DHT22;10494;50.868;4.180;2023-05-18T02:12:55;8.40;99.90
20670;DHT22;10494;50.868;4.180;2023-05-18T02:15:21;8.30;99.90
20670;DHT22;10494;50.868;4.180;2023-05-18T02:17:46;8.10;99.90
20670;DHT22;10494;50.868;4.180;2023-05-18T02:20:12;8.20;99.90
20670;DHT22;10494;50.868;4.180;2023-05-18T02:22:38;8.00;99.90
20670;DHT22;10494;50.868;4.180;2023-05-18T02:25:04;7.80;99.90
20670;DHT22;10494;50.868;4.180;2023-05-18T02:27:30;7.90;99.90
20670;DHT22;10494;50.868;4.180;2023-05-18T02:29:56;8.00;99.90
20670;DHT22;10494;50.868;4.180;2023-05-18T02:32:22;8.10;99.90
20670;DHT22;10494;50.868;4.180;2023-05-18T02:34:51;8.30;99.90
20670;DHT22;10494;50.868;4.180;2023-05-18T02:37:17;8.20;99.90
20670;DHT22;10494;50.868;4.180;2023-05-18T02:39:42;8.10;99.90
20670;DHT22;10494;50.868;4.180;2023-05-18T02:42:08;8.20;99.90
20670;DHT22;10494;50.868;4.180;2023-05-18T02:44:34;8.20;99.90
20670;DHT22;10494;50.868;4.180;2023-05-18T02:47:00;8.20;99.90
20670;DHT22;10494;50.868;4.180;2023-05-18T02:49:26;8.30;99.90
20670;DHT22;10494;50.868;4.180;2023-05-18T02:51:51;8.40;99.90
20670;DHT22;10494;50.868;4.180;2023-05-18T02:54:17;8.40;99.90
20670;DHT22;10494;50.868;4.180;2023-05-18T02:56:43;8.50;99.90
20670;DHT22;10494;50.868;4.180;2023-05-18T02:59:08;8.50;99.90
20670;DHT22;10494;50.868;4.180;2023-05-18T03:01:34;8.60;99.90
20670;DHT22;10494;50.868;4.180;2023-05-18T03:04:02;8.60;99.90
20670;DHT22;10494;50.868;4.180;2023-05-18T03:06:27;8.30;99.90
20670;DHT22;10494;50.868;4.180;2023-05-18T03:08:55;8.30;99.90
20670;DHT22;10494;50.868;4.180;2023-05-18T03:11:24;8.40;99.90
20670;DHT22;10494;50.868;4.180;2023-05-18T03:13:51;8.30;99.90
20670;DHT22;10494;50.868;4.180;2023-05-18T03:16:16;8.40;99.90
20670;DHT22;10494;50.868;4.180;2023-05-18T03:18:43;8.40;99.90
20670;DHT22;10494;50.868;4.180;2023-05-18T03:21:08;8.40;99.90
20670;DHT22;10494;50.868;4.180;2023-05-18T03:23:34;8.20;99.90
20670;DHT22;10494;50.868;4.180;2023-05-18T03:26:00;8.10;99.90
20670;DHT22;10494;50.868;4.180;2023-05-18T03:28:28;8.00;99.90
20670;DHT22;10494;50.868;4.180;2023-05-18T03:30:54;7.70;99.90
20670;DHT22;10494;50.868;4.180;2023-05-18T03:33:20;7.70;99.90
20670;DHT22;10494;50.868;4.180;2023-05-18T03:35:47;7.80;99.90
20670;DHT22;10494;50.868;4.180;2023-05-18T03:38:12;8.00;99.90
20670;DHT22;10494;50.868;4.180;2023-05-18T03:40:38;8.10;99.90
20670;DHT22;10494;50.868;4.180;2023-05-18T03:43:03;8.20;99.90
20670;DHT22;10494;50.868;4.180;2023-05-18T03:45:29;8.30;99.90
20670;DHT22;10494;50.868;4.180;2023-05-18T03:47:55;8.20;99.90
20670;DHT22;10494;50.868;4.180;2023-05-18T03:50:21;8.30;99.90
20670;DHT22;10494;50.868;4.180;2023-05-18T03:52:46;8.00;99.90
20670;DHT22;10494;50.868;4.180;2023-05-18T03:55:12;7.80;99.90
20670;DHT22;10494;50.868;4.180;2023-05-18T03:57:38;7.50;99.90
20670;DHT22;10494;50.868;4.180;2023-05-18T04:00:05;7.60;99.90
20670;DHT22;10494;50.868;4.180;2023-05-18T04:02:33;7.70;99.90
20670;DHT22;10494;50.868;4.180;2023-05-18T04:04:59;7.60;99.90
20670;DHT22;10494;50.868;4.180;2023-05-18T04:07:25;7.50;99.90
20670;DHT22;10494;50.868;4.180;2023-05-18T04:09:52;7.60;99.90
20670;DHT22;10494;50.868;4.180;2023-05-18T04:12:18;7.70;99.90
20670;DHT22;10494;50.868;4.180;2023-05-18T04:14:44;7.90;99.90
20670;DHT22;10494;50.868;4.180;2023-05-18T04:17:18;8.00;99.90
20670;DHT22;10494;50.868;4.180;2023-05-18T04:19:47;8.10;99.90
20670;DHT22;10494;50.868;4.180;2023-05-18T04:22:12;8.10;99.90
20670;DHT22;10494;50.868;4.180;2023-05-18T04:24:38;8.20;99.90
20670;DHT22;10494;50.868;4.180;2023-05-18T04:27:05;8.30;99.90
20670;DHT22;10494;50.868;4.180;2023-05-18T04:29:31;8.40;99.90
20670;DHT22;10494;50.868;4.180;2023-05-18T04:31:57;8.40;99.90
20670;DHT22;10494;50.868;4.180;2023-05-18T04:34:25;8.50;99.90
20670;DHT22;10494;50.868;4.180;2023-05-18T04:36:51;8.50;99.90
20670;DHT22;10494;50.868;4.180;2023-05-18T04:39:20;8.50;99.90
20670;DHT22;10494;50.868;4.180;2023-05-18T04:41:48;8.70;99.90
20670;DHT22;10494;50.868;4.180;2023-05-18T04:44:15;8.70;99.90
20670;DHT22;10494;50.868;4.180;2023-05-18T04:46:42;8.80;99.90
20670;DHT22;10494;50.868;4.180;2023-05-18T04:49:12;8.80;99.90
20670;DHT22;10494;50.868;4.180;2023-05-18T04:51:38;8.90;99.90
20670;DHT22;10494;50.868;4.180;2023-05-18T04:54:04;8.90;99.90
20670;DHT22;10494;50.868;4.180;2023-05-18T04:56:30;8.90;99.90
20670;DHT22;10494;50.868;4.180;2023-05-18T04:58:56;8.90;99.90
20670;DHT22;10494;50.868;4.180;2023-05-18T05:01:24;9.00;99.90
20670;DHT22;10494;50.868;4.180;2023-05-18T05:03:49;8.90;99.90
20670;DHT22;10494;50.868;4.180;2023-05-18T05:06:15;9.00;99.90
20670;DHT22;10494;50.868;4.180;2023-05-18T05:08:41;9.00;99.90
20670;DHT22;10494;50.868;4.180;2023-05-18T05:11:06;9.00;99.90
20670;DHT22;10494;50.868;4.180;2023-05-18T05:13:32;9.30;99.90
20670;DHT22;10494;50.868;4.180;2023-05-18T05:16:00;9.30;99.90
20670;DHT22;10494;50.868;4.180;2023-05-18T05:18:26;9.30;99.90
20670;DHT22;10494;50.868;4.180;2023-05-18T05:20:52;9.20;99.90
20670;DHT22;10494;50.868;4.180;2023-05-18T05:23:18;9.20;99.90
20670;DHT22;10494;50.868;4.180;2023-05-18T05:25:44;9.30;99.90
20670;DHT22;10494;50.868;4.180;2023-05-18T05:28:10;9.20;99.90
20670;DHT22;10494;50.868;4.180;2023-05-18T05:30:35;9.20;99.90
20670;DHT22;10494;50.868;4.180;2023-05-18T05:33:01;9.30;99.90
20670;DHT22;10494;50.868;4.180;2023-05-18T05:35:27;9.50;99.90
20670;DHT22;10494;50.868;4.180;2023-05-18T05:37:52;9.40;99.90
20670;DHT22;10494;50.868;4.180;2023-05-18T05:40:18;9.60;99.90
20670;DHT22;10494;50.868;4.180;2023-05-18T05:42:44;9.50;99.90
20670;DHT22;10494;50.868;4.180;2023-05-18T05:45:10;9.50;99.90
20670;DHT22;10494;50.868;4.180;2023-05-18T05:47:35;9.40;99.90
20670;DHT22;10494;50.868;4.180;2023-05-18T05:50:01;9.50;99.90
20670;DHT22;10494;50.868;4.180;2023-05-18T05:52:27;9.70;99.90
20670;DHT22;10494;50.868;4.180;2023-05-18T05:54:56;9.60;99.90
20670;DHT22;10494;50.868;4.180;2023-05-18T05:57:21;9.40;99.90
20670;DHT22;10494;50.868;4.180;2023-05-18T05:59:47;9.30;99.90
20670;DHT22;10494;50.868;4.180;2023-05-18T06:02:13;9.50;99.90
20670;DHT22;10494;50.868;4.180;2023-05-18T06:04:38;9.80;99.90
20670;DHT22;10494;50.868;4.180;2023-05-18T06:07:04;10.10;99.90
20670;DHT22;10494;50.868;4.180;2023-05-18T06:09:30;10.20;99.90
20670;DHT22;10494;50.868;4.180;2023-05-18T06:14:24;10.00;99.90
20670;DHT22;10494;50.868;4.180;2023-05-18T06:16:49;10.30;99.90
20670;DHT22;10494;50.868;4.180;2023-05-18T06:19:15;10.60;99.90
20670;DHT22;10494;50.868;4.180;2023-05-18T06:21:41;10.50;99.90
20670;DHT22;10494;50.868;4.180;2023-05-18T06:24:06;10.60;99.90
20670;DHT22;10494;50.868;4.180;2023-05-18T06:26:32;10.60;99.90
20670;DHT22;10494;50.868;4.180;2023-05-18T06:28:58;10.30;99.90
20670;DHT22;10494;50.868;4.180;2023-05-18T06:31:23;10.30;99.90
20670;DHT22;10494;50.868;4.180;2023-05-18T06:33:49;10.00;99.90
20670;DHT22;10494;50.868;4.180;2023-05-18T06:36:15;10.30;99.90
20670;DHT22;10494;50.868;4.180;2023-05-18T06:38:41;10.10;99.90
20670;DHT22;10494;50.868;4.180;2023-05-18T06:41:07;10.50;99.90
20670;DHT22;10494;50.868;4.180;2023-05-18T06:43:32;10.80;99.90
20670;DHT22;10494;50.868;4.180;2023-05-18T06:45:58;11.00;99.90
20670;DHT22;10494;50.868;4.180;2023-05-18T06:48:26;11.10;99.90
20670;DHT22;10494;50.868;4.180;2023-05-18T06:50:52;11.00;99.90
20670;DHT22;10494;50.868;4.180;2023-05-18T06:53:18;10.80;99.90
20670;DHT22;10494;50.868;4.180;2023-05-18T06:55:43;10.90;99.90
20670;DHT22;10494;50.868;4.180;2023-05-18T06:58:09;11.10;99.90
20670;DHT22;10494;50.868;4.180;2023-05-18T07:00:37;10.90;99.90
20670;DHT22;10494;50.868;4.180;2023-05-18T07:03:03;11.00;99.90
20670;DHT22;10494;50.868;4.180;2023-05-18T07:05:29;10.60;99.90
20670;DHT22;10494;50.868;4.180;2023-05-18T07:07:54;10.50;99.90
20670;DHT22;10494;50.868;4.180;2023-05-18T07:10:20;10.90;99.90
20670;DHT22;10494;50.868;4.180;2023-05-18T07:12:47;11.30;99.90
20670;DHT22;10494;50.868;4.180;2023-05-18T07:15:13;10.60;99.90
20670;DHT22;10494;50.868;4.180;2023-05-18T07:17:39;11.10;99.90
20670;DHT22;10494;50.868;4.180;2023-05-18T07:20:06;11.20;99.90
20670;DHT22;10494;50.868;4.180;2023-05-18T07:22:35;11.60;99.90
20670;DHT22;10494;50.868;4.180;2023-05-18T07:25:00;11.90;99.90
20670;DHT22;10494;50.868;4.180;2023-05-18T07:27:27;11.90;99.90
20670;DHT22;10494;50.868;4.180;2023-05-18T07:29:53;11.80;99.90
20670;DHT22;10494;50.868;4.180;2023-05-18T07:32:18;10.70;99.90
20670;DHT22;10494;50.868;4.180;2023-05-18T07:34:44;11.10;99.90
20670;DHT22;10494;50.868;4.180;2023-05-18T07:37:11;11.60;99.90
20670;DHT22;10494;50.868;4.180;2023-05-18T07:39:37;12.40;99.90
20670;DHT22;10494;50.868;4.180;2023-05-18T07:42:03;13.70;99.90
20670;DHT22;10494;50.868;4.180;2023-05-18T07:44:29;15.70;99.90
20670;DHT22;10494;50.868;4.180;2023-05-18T07:46:55;17.00;99.90
20670;DHT22;10494;50.868;4.180;2023-05-18T07:49:21;17.90;99.90
20670;DHT22;10494;50.868;4.180;2023-05-18T07:51:48;17.10;99.90
20670;DHT22;10494;50.868;4.180;2023-05-18T07:54:14;18.60;99.90
20670;DHT22;10494;50.868;4.180;2023-05-18T07:56:40;20.50;99.90
20670;DHT22;10494;50.868;4.180;2023-05-18T07:59:07;20.60;92.10
20670;DHT22;10494;50.868;4.180;2023-05-18T08:01:33;18.80;99.30
20670;DHT22;10494;50.868;4.180;2023-05-18T08:03:59;17.20;98.70
20670;DHT22;10494;50.868;4.180;2023-05-18T08:06:25;18.10;99.90
20670;DHT22;10494;50.868;4.180;2023-05-18T08:08:51;18.60;99.90
20670;DHT22;10494;50.868;4.180;2023-05-18T08:11:18;18.10;98.70
20670;DHT22;10494;50.868;4.180;2023-05-18T08:13:43;18.40;97.90
20670;DHT22;10494;50.868;4.180;2023-05-18T08:16:09;17.50;99.90
20670;DHT22;10494;50.868;4.180;2023-05-18T08:18:35;16.60;99.90
20670;DHT22;10494;50.868;4.180;2023-05-18T08:21:00;14.80;99.90
20670;DHT22;10494;50.868;4.180;2023-05-18T08:23:28;14.50;99.90
20670;DHT22;10494;50.868;4.180;2023-05-18T08:25:54;15.00;99.90
20670;DHT22;10494;50.868;4.180;2023-05-18T08:28:21;14.50;99.90
20670;DHT22;10494;50.868;4.180;2023-05-18T08:30:47;14.10;99.90
20670;DHT22;10494;50.868;4.180;2023-05-18T08:33:12;14.90;99.90
20670;DHT22;10494;50.868;4.180;2023-05-18T08:35:38;15.80;99.90
20670;DHT22;10494;50.868;4.180;2023-05-18T08:38:04;17.50;99.90
20670;DHT22;10494;50.868;4.180;2023-05-18T08:40:39;19.40;99.90
20670;DHT22;10494;50.868;4.180;2023-05-18T08:43:11;20.80;97.80
20670;DHT22;10494;50.868;4.180;2023-05-18T08:45:51;17.10;99.40
20670;DHT22;10494;50.868;4.180;2023-05-18T08:48:21;15.20;99.90
20670;DHT22;10494;50.868;4.180;2023-05-18T08:50:48;14.70;99.90
20670;DHT22;10494;50.868;4.180;2023-05-18T08:53:15;15.30;99.90
20670;DHT22;10494;50.868;4.180;2023-05-18T08:55:43;15.70;99.90
20670;DHT22;10494;50.868;4.180;2023-05-18T08:58:12;16.20;99.90
20670;DHT22;10494;50.868;4.180;2023-05-18T09:00:38;17.60;99.90
20670;DHT22;10494;50.868;4.180;2023-05-18T09:03:05;17.00;99.90
20670;DHT22;10494;50.868;4.180;2023-05-18T09:05:30;15.70;99.90
20670;DHT22;10494;50.868;4.180;2023-05-18T09:07:56;15.50;99.90
20670;DHT22;10494;50.868;4.180;2023-05-18T09:10:23;15.00;99.90
20670;DHT22;10494;50.868;4.180;2023-05-18T09:12:49;15.20;99.90
20670;DHT22;10494;50.868;4.180;2023-05-18T09:15:16;15.90;99.90
20670;DHT22;10494;50.868;4.180;2023-05-18T09:17:42;16.50;99.90
20670;DHT22;10494;50.868;4.180;2023-05-18T09:20:08;15.70;99.90
20670;DHT22;10494;50.868;4.180;2023-05-18T09:22:35;15.80;99.90
20670;DHT22;10494;50.868;4.180;2023-05-18T09:25:05;15.30;99.90
20670;DHT22;10494;50.868;4.180;2023-05-18T09:27:32;14.30;99.90
20670;DHT22;10494;50.868;4.180;2023-05-18T09:29:58;15.40;99.90
20670;DHT22;10494;50.868;4.180;2023-05-18T09:32:24;17.10;99.90
20670;DHT22;10494;50.868;4.180;2023-05-18T09:34:51;18.50;99.90
20670;DHT22;10494;50.868;4.180;2023-05-18T09:37:18;18.60;94.50
20670;DHT22;10494;50.868;4.180;2023-05-18T09:39:47;19.40;95.20
20670;DHT22;10494;50.868;4.180;2023-05-18T09:42:25;19.40;90.90
20670;DHT22;10494;50.868;4.180;2023-05-18T09:44:51;16.50;96.00
20670;DHT22;10494;50.868;4.180;2023-05-18T09:47:16;15.60;99.50
20670;DHT22;10494;50.868;4.180;2023-05-18T09:49:42;15.20;99.90
20670;DHT22;10494;50.868;4.180;2023-05-18T09:52:08;15.30;99.90
20670;DHT22;10494;50.868;4.180;2023-05-18T09:54:34;15.60;99.90
20670;DHT22;10494;50.868;4.180;2023-05-18T09:57:02;16.50;99.90
20670;DHT22;10494;50.868;4.180;2023-05-18T09:59:28;17.80;96.80
20670;DHT22;10494;50.868;4.180;2023-05-18T10:04:20;18.60;90.40
20670;DHT22;10494;50.868;4.180;2023-05-18T10:06:49;18.70;90.30
20670;DHT22;10494;50.868;4.180;2023-05-18T10:09:15;18.80;87.80
20670;DHT22;10494;50.868;4.180;2023-05-18T10:11:42;19.00;90.00
20670;DHT22;10494;50.868;4.180;2023-05-18T10:14:10;19.30;84.60
20670;DHT22;10494;50.868;4.180;2023-05-18T10:16:36;19.50;85.30
20670;DHT22;10494;50.868;4.180;2023-05-18T10:19:03;18.70;86.70
20670;DHT22;10494;50.868;4.180;2023-05-18T10:21:33;15.90;90.20
20670;DHT22;10494;50.868;4.180;2023-05-18T10:24:02;14.90;95.00
20670;DHT22;10494;50.868;4.180;2023-05-18T10:26:29;15.80;96.80
20670;DHT22;10494;50.868;4.180;2023-05-18T10:28:58;15.50;94.50
20670;DHT22;10494;50.868;4.180;2023-05-18T10:31:24;15.40;96.50
20670;DHT22;10494;50.868;4.180;2023-05-18T10:33:52;15.60;98.10
20670;DHT22;10494;50.868;4.180;2023-05-18T10:36:18;15.50;95.70
20670;DHT22;10494;50.868;4.180;2023-05-18T10:38:45;16.10;99.60
20670;DHT22;10494;50.868;4.180;2023-05-18T10:41:12;15.60;97.10
20670;DHT22;10494;50.868;4.180;2023-05-18T10:43:40;15.80;97.20
20670;DHT22;10494;50.868;4.180;2023-05-18T10:46:06;16.60;97.50
20670;DHT22;10494;50.868;4.180;2023-05-18T10:48:37;17.50;94.90
20670;DHT22;10494;50.868;4.180;2023-05-18T10:51:03;18.30;95.40
20670;DHT22;10494;50.868;4.180;2023-05-18T10:53:32;18.60;91.20
20670;DHT22;10494;50.868;4.180;2023-05-18T10:55:58;18.60;91.00
20670;DHT22;10494;50.868;4.180;2023-05-18T10:58:25;18.90;90.10
20670;DHT22;10494;50.868;4.180;2023-05-18T11:00:57;18.70;88.20
20670;DHT22;10494;50.868;4.180;2023-05-18T11:03:25;18.90;84.90
20670;DHT22;10494;50.868;4.180;2023-05-18T11:06:03;16.00;90.50
20670;DHT22;10494;50.868;4.180;2023-05-18T11:08:33;15.70;94.20
20670;DHT22;10494;50.868;4.180;2023-05-18T11:11:06;16.40;95.80
20670;DHT22;10494;50.868;4.180;2023-05-18T11:13:35;17.20;94.00
20670;DHT22;10494;50.868;4.180;2023-05-18T11:16:04;16.40;91.70
20670;DHT22;10494;50.868;4.180;2023-05-18T11:18:50;15.50;95.20
20670;DHT22;10494;50.868;4.180;2023-05-18T11:21:30;15.20;95.90
20670;DHT22;10494;50.868;4.180;2023-05-18T11:24:18;14.80;97.90
20670;DHT22;10494;50.868;4.180;2023-05-18T11:29:39;16.10;96.00
20670;DHT22;10494;50.868;4.180;2023-05-18T11:32:26;15.80;98.20
20670;DHT22;10494;50.868;4.180;2023-05-18T11:34:54;15.60;96.70
20670;DHT22;10494;50.868;4.180;2023-05-18T11:40:08;15.90;96.40
20670;DHT22;10494;50.868;4.180;2023-05-18T11:42:34;15.50;97.60
20670;DHT22;10494;50.868;4.180;2023-05-18T11:45:10;16.10;97.90
20670;DHT22;10494;50.868;4.180;2023-05-18T11:47:37;15.90;99.80
20670;DHT22;10494;50.868;4.180;2023-05-18T11:50:06;16.30;98.50
20670;DHT22;10494;50.868;4.180;2023-05-18T11:52:33;16.80;95.80
20670;DHT22;10494;50.868;4.180;2023-05-18T11:55:13;17.00;93.70
20670;DHT22;10494;50.868;4.180;2023-05-18T11:57:41;17.30;91.40
20670;DHT22;10494;50.868;4.180;2023-05-18T12:00:08;17.10;91.40
20670;DHT22;10494;50.868;4.180;2023-05-18T12:02:47;16.70;90.10
20670;DHT22;10494;50.868;4.180;2023-05-18T12:05:13;16.40;95.30
20670;DHT22;10494;50.868;4.180;2023-05-18T12:07:40;16.70;95.40
20670;DHT22;10494;50.868;4.180;2023-05-18T12:10:08;16.10;91.30
20670;DHT22;10494;50.868;4.180;2023-05-18T12:12:34;15.70;94.00
20670;DHT22;10494;50.868;4.180;2023-05-18T12:15:05;15.60;93.70
20670;DHT22;10494;50.868;4.180;2023-05-18T12:20:05;16.70;95.20
20670;DHT22;10494;50.868;4.180;2023-05-18T12:22:31;17.00;93.20
20670;DHT22;10494;50.868;4.180;2023-05-18T12:24:58;16.80;92.70
20670;DHT22;10494;50.868;4.180;2023-05-18T12:27:24;16.00;94.60
20670;DHT22;10494;50.868;4.180;2023-05-18T12:29:51;16.40;95.00
20670;DHT22;10494;50.868;4.180;2023-05-18T12:32:16;16.80;94.40
20670;DHT22;10494;50.868;4.180;2023-05-18T12:34:43;17.00;95.90
20670;DHT22;10494;50.868;4.180;2023-05-18T12:37:09;16.20;94.00
20670;DHT22;10494;50.868;4.180;2023-05-18T12:39:35;16.60;96.20
20670;DHT22;10494;50.868;4.180;2023-05-18T12:42:12;16.20;94.20
20670;DHT22;10494;50.868;4.180;2023-05-18T12:44:40;16.20;96.60
20670;DHT22;10494;50.868;4.180;2023-05-18T12:47:10;16.80;96.80
20670;DHT22;10494;50.868;4.180;2023-05-18T12:49:40;17.00;94.90
20670;DHT22;10494;50.868;4.180;2023-05-18T12:52:11;16.80;93.10
20670;DHT22;10494;50.868;4.180;2023-05-18T12:54:53;17.00;92.10
20670;DHT22;10494;50.868;4.180;2023-05-18T12:57:21;16.00;94.30
20670;DHT22;10494;50.868;4.180;2023-05-18T12:59:50;16.00;96.30
20670;DHT22;10494;50.868;4.180;2023-05-18T13:02:36;16.30;95.10
20670;DHT22;10494;50.868;4.180;2023-05-18T13:05:09;15.70;94.80
20670;DHT22;10494;50.868;4.180;2023-05-18T13:10:10;15.00;96.00
20670;DHT22;10494;50.868;4.180;2023-05-18T13:12:44;15.50;97.50
20670;DHT22;10494;50.868;4.180;2023-05-18T13:15:11;15.50;96.50
20670;DHT22;10494;50.868;4.180;2023-05-18T13:17:37;15.70;98.60
20670;DHT22;10494;50.868;4.180;2023-05-18T13:20:10;16.30;97.60
20670;DHT22;10494;50.868;4.180;2023-05-18T13:22:36;16.20;96.40
20670;DHT22;10494;50.868;4.180;2023-05-18T13:25:02;16.00;96.60
20670;DHT22;10494;50.868;4.180;2023-05-18T13:27:28;16.40;98.30
20670;DHT22;10494;50.868;4.180;2023-05-18T13:29:53;16.30;94.80
20670;DHT22;10494;50.868;4.180;2023-05-18T13:32:23;16.10;97.00
20670;DHT22;10494;50.868;4.180;2023-05-18T13:34:48;16.30;96.10
20670;DHT22;10494;50.868;4.180;2023-05-18T13:37:14;16.60;95.60
20670;DHT22;10494;50.868;4.180;2023-05-18T13:39:40;16.60;96.60
20670;DHT22;10494;50.868;4.180;2023-05-18T13:42:06;16.00;93.00
20670;DHT22;10494;50.868;4.180;2023-05-18T13:44:32;15.40;93.90
20670;DHT22;10494;50.868;4.180;2023-05-18T13:46:58;15.30;94.50
20670;DHT22;10494;50.868;4.180;2023-05-18T13:49:24;15.40;95.20
20670;DHT22;10494;50.868;4.180;2023-05-18T13:51:50;15.80;95.90
20670;DHT22;10494;50.868;4.180;2023-05-18T13:54:16;16.40;95.60
20670;DHT22;10494;50.868;4.180;2023-05-18T13:56:41;16.50;93.70
20670;DHT22;10494;50.868;4.180;2023-05-18T13:59:07;16.90;93.50
20670;DHT22;10494;50.868;4.180;2023-05-18T14:01:33;16.30;91.80
20670;DHT22;10494;50.868;4.180;2023-05-18T14:03:58;16.00;93.80
20670;DHT22;10494;50.868;4.180;2023-05-18T14:06:24;16.00;94.10
20670;DHT22;10494;50.868;4.180;2023-05-18T14:08:52;16.40;94.20
20670;DHT22;10494;50.868;4.180;2023-05-18T14:11:17;16.70;96.10
20670;DHT22;10494;50.868;4.180;2023-05-18T14:13:43;17.30;94.50
20670;DHT22;10494;50.868;4.180;2023-05-18T14:16:09;16.70;90.50
20670;DHT22;10494;50.868;4.180;2023-05-18T14:18:35;16.40;93.90
20670;DHT22;10494;50.868;4.180;2023-05-18T14:21:00;16.90;95.50
20670;DHT22;10494;50.868;4.180;2023-05-18T14:23:28;16.70;91.80
20670;DHT22;10494;50.868;4.180;2023-05-18T14:25:53;17.00;95.50
20670;DHT22;10494;50.868;4.180;2023-05-18T14:28:19;17.40;91.70
20670;DHT22;10494;50.868;4.180;2023-05-18T14:30:45;18.10;90.20
20670;DHT22;10494;50.868;4.180;2023-05-18T14:33:11;17.10;90.70
20670;DHT22;10494;50.868;4.180;2023-05-18T14:35:36;16.50;93.20
20670;DHT22;10494;50.868;4.180;2023-05-18T14:38:02;17.00;94.60
20670;DHT22;10494;50.868;4.180;2023-05-18T14:40:28;16.70;93.00
20670;DHT22;10494;50.868;4.180;2023-05-18T14:42:54;16.60;93.30
20670;DHT22;10494;50.868;4.180;2023-05-18T14:45:19;16.60;95.10
20670;DHT22;10494;50.868;4.180;2023-05-18T14:47:45;17.30;94.40
20670;DHT22;10494;50.868;4.180;2023-05-18T14:50:11;17.00;92.10
20670;DHT22;10494;50.868;4.180;2023-05-18T14:52:36;17.00;94.20
20670;DHT22;10494;50.868;4.180;2023-05-18T14:55:02;17.10;91.70
20670;DHT22;10494;50.868;4.180;2023-05-18T14:57:28;16.50;91.80
20670;DHT22;10494;50.868;4.180;2023-05-18T14:59:53;16.70;93.50
20670;DHT22;10494;50.868;4.180;2023-05-18T15:02:19;16.80;93.30
20670;DHT22;10494;50.868;4.180;2023-05-18T15:04:45;17.30;93.20
20670;DHT22;10494;50.868;4.180;2023-05-18T15:07:10;17.90;90.50
20670;DHT22;10494;50.868;4.180;2023-05-18T15:09:36;18.20;85.20
20670;DHT22;10494;50.868;4.180;2023-05-18T15:12:02;17.80;86.00
20670;DHT22;10494;50.868;4.180;2023-05-18T15:14:27;17.00;82.70
20670;DHT22;10494;50.868;4.180;2023-05-18T15:16:53;17.10;88.60
20670;DHT22;10494;50.868;4.180;2023-05-18T15:19:18;17.50;88.40
20670;DHT22;10494;50.868;4.180;2023-05-18T15:21:44;17.70;82.70
20670;DHT22;10494;50.868;4.180;2023-05-18T15:24:10;17.80;83.00
20670;DHT22;10494;50.868;4.180;2023-05-18T15:26:36;17.50;79.40
20670;DHT22;10494;50.868;4.180;2023-05-18T15:29:02;17.20;87.70
20670;DHT22;10494;50.868;4.180;2023-05-18T15:31:28;17.10;83.80
20670;DHT22;10494;50.868;4.180;2023-05-18T15:33:53;17.30;88.70
20670;DHT22;10494;50.868;4.180;2023-05-18T15:36:19;17.80;87.50
20670;DHT22;10494;50.868;4.180;2023-05-18T15:38:46;18.20;86.90
20670;DHT22;10494;50.868;4.180;2023-05-18T15:41:11;18.60;87.70
20670;DHT22;10494;50.868;4.180;2023-05-18T15:43:37;17.80;83.00
20670;DHT22;10494;50.868;4.180;2023-05-18T15:46:04;17.00;85.90
20670;DHT22;10494;50.868;4.180;2023-05-18T15:48:30;16.90;85.90
20670;DHT22;10494;50.868;4.180;2023-05-18T15:50:55;16.80;86.30
20670;DHT22;10494;50.868;4.180;2023-05-18T15:53:21;16.70;87.70
20670;DHT22;10494;50.868;4.180;2023-05-18T15:55:46;16.70;87.70
20670;DHT22;10494;50.868;4.180;2023-05-18T15:58:15;16.80;89.60
20670;DHT22;10494;50.868;4.180;2023-05-18T16:00:41;17.30;90.60
20670;DHT22;10494;50.868;4.180;2023-05-18T16:03:07;17.40;86.80
20670;DHT22;10494;50.868;4.180;2023-05-18T16:05:32;16.90;86.90
20670;DHT22;10494;50.868;4.180;2023-05-18T16:07:58;16.50;89.60